sensor_id;sensor_type;location;lat;lon;timestamp;temperature;humidity
7972;DHT22;4031;49.758;6.120;2022-08-21T00:00:08;12.10;99.90
7972;DHT22;4031;49.758;6.120;2022-08-21T00:02:36;12.00;99.90
7972;DHT22;4031;49.758;6.120;2022-08-21T00:05:03;12.00;99.90
7972;DHT22;4031;49.758;6.120;2022-08-21T00:07:30;11.90;99.90
7972;DHT22;4031;49.758;6.120;2022-08-21T00:09:55;11.90;99.90
7972;DHT22;4031;49.758;6.120;2022-08-21T00:12:22;11.90;99.90
7972;DHT22;4031;49.758;6.120;2022-08-21T00:14:48;11.90;99.90
7972;DHT22;4031;49.758;6.120;2022-08-21T00:17:13;11.80;99.90
7972;DHT22;4031;49.758;6.120;2022-08-21T00:19:39;11.80;99.90
7972;DHT22;4031;49.758;6.120;2022-08-21T00:22:05;11.80;99.90
7972;DHT22;4031;49.758;6.120;2022-08-21T00:24:31;11.70;99.90
7972;DHT22;4031;49.758;6.120;2022-08-21T00:26:56;11.70;99.90
7972;DHT22;4031;49.758;6.120;2022-08-21T00:29:22;11.70;99.90
7972;DHT22;4031;49.758;6.120;2022-08-21T00:31:48;11.60;99.90
7972;DHT22;4031;49.758;6.120;2022-08-21T00:34:14;11.60;99.90
7972;DHT22;4031;49.758;6.120;2022-08-21T00:36:40;11.60;99.90
7972;DHT22;4031;49.758;6.120;2022-08-21T00:39:07;11.50;99.90
7972;DHT22;4031;49.758;6.120;2022-08-21T00:41:34;11.50;99.90
7972;DHT22;4031;49.758;6.120;2022-08-21T00:44:03;11.50;99.90
7972;DHT22;4031;49.758;6.120;2022-08-21T00:46:29;11.50;99.90
7972;DHT22;4031;49.758;6.120;2022-08-21T00:48:56;11.50;99.90
7972;DHT22;4031;49.758;6.120;2022-08-21T00:51:38;11.40;99.90
7972;DHT22;4031;49.758;6.120;2022-08-21T00:54:07;11.40;99.90
7972;DHT22;4031;49.758;6.120;2022-08-21T00:56:34;11.30;99.90
7972;DHT22;4031;49.758;6.120;2022-08-21T00:59:01;11.30;99.90
7972;DHT22;4031;49.758;6.120;2022-08-21T01:01:27;11.30;99.90
7972;DHT22;4031;49.758;6.120;2022-08-21T01:03:53;11.20;99.90
7972;DHT22;4031;49.758;6.120;2022-08-21T01:06:19;11.20;99.90
7972;DHT22;4031;49.758;6.120;2022-08-21T01:08:45;11.20;99.90
7972;DHT22;4031;49.758;6.120;2022-08-21T01:11:12;11.20;99.90
7972;DHT22;4031;49.758;6.120;2022-08-21T01:13:40;11.10;99.90
7972;DHT22;4031;49.758;6.120;2022-08-21T01:16:10;11.00;99.90
7972;DHT22;4031;49.758;6.120;2022-08-21T01:18:36;11.00;99.90
7972;DHT22;4031;49.758;6.120;2022-08-21T01:21:07;11.00;99.90
7972;DHT22;4031;49.758;6.120;2022-08-21T01:23:37;10.90;99.90
7972;DHT22;4031;49.758;6.120;2022-08-21T01:26:04;10.90;99.90
7972;DHT22;4031;49.758;6.120;2022-08-21T01:28:36;10.90;99.90
7972;DHT22;4031;49.758;6.120;2022-08-21T01:31:06;10.90;99.90
7972;DHT22;4031;49.758;6.120;2022-08-21T01:33:33;10.90;99.90
7972;DHT22;4031;49.758;6.120;2022-08-21T01:35:59;10.80;99.90
7972;DHT22;4031;49.758;6.120;2022-08-21T01:38:25;10.80;99.90
7972;DHT22;4031;49.758;6.120;2022-08-21T01:40:50;10.70;99.90
7972;DHT22;4031;49.758;6.120;2022-08-21T01:43:16;10.70;99.90
7972;DHT22;4031;49.758;6.120;2022-08-21T01:45:42;10.70;99.90
7972;DHT22;4031;49.758;6.120;2022-08-21T01:48:08;10.60;99.90
7972;DHT22;4031;49.758;6.120;2022-08-21T01:50:34;10.70;99.90
7972;DHT22;4031;49.758;6.120;2022-08-21T01:53:00;10.60;99.90
7972;DHT22;4031;49.758;6.120;2022-08-21T01:55:25;10.60;99.90
7972;DHT22;4031;49.758;6.120;2022-08-21T01:57:51;10.60;99.90
7972;DHT22;4031;49.758;6.120;2022-08-21T02:00:19;10.50;99.90
7972;DHT22;4031;49.758;6.120;2022-08-21T02:02:49;10.50;99.90
7972;DHT22;4031;49.758;6.120;2022-08-21T02:05:15;10.40;99.90
7972;DHT22;4031;49.758;6.120;2022-08-21T02:07:44;10.40;99.90
7972;DHT22;4031;49.758;6.120;2022-08-21T02:10:17;10.30;99.90
7972;DHT22;4031;49.758;6.120;2022-08-21T02:12:45;10.30;99.90
7972;DHT22;4031;49.758;6.120;2022-08-21T02:15:11;10.30;99.90
7972;DHT22;4031;49.758;6.120;2022-08-21T02:20:07;10.30;99.90
7972;DHT22;4031;49.758;6.120;2022-08-21T02:22:33;10.30;99.90
7972;DHT22;4031;49.758;6.120;2022-08-21T02:24:59;10.20;99.90
7972;DHT22;4031;49.758;6.120;2022-08-21T02:27:25;10.20;99.90
7972;DHT22;4031;49.758;6.120;2022-08-21T02:29:51;10.20;99.90
7972;DHT22;4031;49.758;6.120;2022-08-21T02:32:16;10.20;99.90
7972;DHT22;4031;49.758;6.120;2022-08-21T02:34:42;10.20;99.90
7972;DHT22;4031;49.758;6.120;2022-08-21T02:37:08;10.10;99.90
7972;DHT22;4031;49.758;6.120;2022-08-21T02:39:34;10.10;99.90
7972;DHT22;4031;49.758;6.120;2022-08-21T02:41:59;10.10;99.90
7972;DHT22;4031;49.758;6.120;2022-08-21T02:44:25;10.10;99.90
7972;DHT22;4031;49.758;6.120;2022-08-21T02:46:51;10.10;99.90
7972;DHT22;4031;49.758;6.120;2022-08-21T02:49:17;10.00;99.90
7972;DHT22;4031;49.758;6.120;2022-08-21T02:51:42;10.00;99.90
7972;DHT22;4031;49.758;6.120;2022-08-21T02:54:08;9.90;99.90
7972;DHT22;4031;49.758;6.120;2022-08-21T02:56:34;9.80;99.90
7972;DHT22;4031;49.758;6.120;2022-08-21T02:58:59;9.80;99.90
7972;DHT22;4031;49.758;6.120;2022-08-21T03:01:25;9.80;99.90
7972;DHT22;4031;49.758;6.120;2022-08-21T03:03:51;9.80;99.90
7972;DHT22;4031;49.758;6.120;2022-08-21T03:06:21;9.80;99.90
7972;DHT22;4031;49.758;6.120;2022-08-21T03:08:47;9.80;99.90
7972;DHT22;4031;49.758;6.120;2022-08-21T03:11:14;9.70;99.90
7972;DHT22;4031;49.758;6.120;2022-08-21T03:13:40;9.70;99.90
7972;DHT22;4031;49.758;6.120;2022-08-21T03:16:06;9.70;99.90
7972;DHT22;4031;49.758;6.120;2022-08-21T03:18:33;9.70;99.90
7972;DHT22;4031;49.758;6.120;2022-08-21T03:20:59;9.70;99.90
7972;DHT22;4031;49.758;6.120;2022-08-21T03:23:25;9.70;99.90
7972;DHT22;4031;49.758;6.120;2022-08-21T03:25:51;9.70;99.90
7972;DHT22;4031;49.758;6.120;2022-08-21T03:28:19;9.70;99.90
7972;DHT22;4031;49.758;6.120;2022-08-21T03:30:48;9.70;99.90
7972;DHT22;4031;49.758;6.120;2022-08-21T03:33:16;9.70;99.90
7972;DHT22;4031;49.758;6.120;2022-08-21T03:35:45;9.60;99.90
7972;DHT22;4031;49.758;6.120;2022-08-21T03:38:14;9.60;99.90
7972;DHT22;4031;49.758;6.120;2022-08-21T03:40:41;9.50;99.90
7972;DHT22;4031;49.758;6.120;2022-08-21T03:43:08;9.50;99.90
7972;DHT22;4031;49.758;6.120;2022-08-21T03:45:34;9.40;99.90
7972;DHT22;4031;49.758;6.120;2022-08-21T03:48:03;9.40;99.90
7972;DHT22;4031;49.758;6.120;2022-08-21T03:50:32;9.40;99.90
7972;DHT22;4031;49.758;6.120;2022-08-21T03:53:00;9.40;99.90
7972;DHT22;4031;49.758;6.120;2022-08-21T03:55:27;9.50;99.90
7972;DHT22;4031;49.758;6.120;2022-08-21T03:57:53;9.40;99.90
7972;DHT22;4031;49.758;6.120;2022-08-21T04:00:19;9.40;99.90
7972;DHT22;4031;49.758;6.120;2022-08-21T04:02:46;9.40;99.90
7972;DHT22;4031;49.758;6.120;2022-08-21T04:05:14;9.30;99.90
7972;DHT22;4031;49.758;6.120;2022-08-21T04:07:59;9.30;99.90
7972;DHT22;4031;49.758;6.120;2022-08-21T04:10:29;9.30;99.90
7972;DHT22;4031;49.758;6.120;2022-08-21T04:12:56;9.20;99.90
7972;DHT22;4031;49.758;6.120;2022-08-21T04:15:25;9.20;99.90
7972;DHT22;4031;49.758;6.120;2022-08-21T04:17:51;9.20;99.90
7972;DHT22;4031;49.758;6.120;2022-08-21T04:20:19;9.20;99.90
7972;DHT22;4031;49.758;6.120;2022-08-21T04:22:47;9.30;99.90
7972;DHT22;4031;49.758;6.120;2022-08-21T04:25:15;9.30;99.90
7972;DHT22;4031;49.758;6.120;2022-08-21T04:27:41;9.20;99.90
7972;DHT22;4031;49.758;6.120;2022-08-21T04:30:08;9.20;99.90
7972;DHT22;4031;49.758;6.120;2022-08-21T04:32:37;9.20;99.90
7972;DHT22;4031;49.758;6.120;2022-08-21T04:35:06;9.40;99.90
7972;DHT22;4031;49.758;6.120;2022-08-21T04:37:34;9.30;99.90
7972;DHT22;4031;49.758;6.120;2022-08-21T04:40:00;9.30;99.90
7972;DHT22;4031;49.758;6.120;2022-08-21T04:42:27;9.30;99.90
7972;DHT22;4031;49.758;6.120;2022-08-21T04:44:54;9.30;99.90
7972;DHT22;4031;49.758;6.120;2022-08-21T04:47:21;9.30;99.90
7972;DHT22;4031;49.758;6.120;2022-08-21T04:49:47;9.30;99.90
7972;DHT22;4031;49.758;6.120;2022-08-21T04:52:17;9.40;99.90
7972;DHT22;4031;49.758;6.120;2022-08-21T04:54:45;9.40;99.90
7972;DHT22;4031;49.758;6.120;2022-08-21T04:57:13;9.40;99.90
7972;DHT22;4031;49.758;6.120;2022-08-21T04:59:47;9.40;99.90
7972;DHT22;4031;49.758;6.120;2022-08-21T05:02:15;9.40;99.90
7972;DHT22;4031;49.758;6.120;2022-08-21T05:04:45;9.50;99.90
7972;DHT22;4031;49.758;6.120;2022-08-21T05:07:19;9.50;99.90
7972;DHT22;4031;49.758;6.120;2022-08-21T05:09:48;9.50;99.90
7972;DHT22;4031;49.758;6.120;2022-08-21T05:12:14;9.50;99.90
7972;DHT22;4031;49.758;6.120;2022-08-21T05:14:40;9.50;99.90
7972;DHT22;4031;49.758;6.120;2022-08-21T05:17:08;9.60;99.90
7972;DHT22;4031;49.758;6.120;2022-08-21T05:19:34;9.60;99.90
7972;DHT22;4031;49.758;6.120;2022-08-21T05:22:00;9.70;99.90
7972;DHT22;4031;49.758;6.120;2022-08-21T05:24:26;9.80;99.90
7972;DHT22;4031;49.758;6.120;2022-08-21T05:26:52;9.70;99.90
7972;DHT22;4031;49.758;6.120;2022-08-21T05:29:18;9.70;99.90
7972;DHT22;4031;49.758;6.120;2022-08-21T05:31:45;9.80;99.90
7972;DHT22;4031;49.758;6.120;2022-08-21T05:34:13;9.80;99.90
7972;DHT22;4031;49.758;6.120;2022-08-21T05:36:40;10.00;99.90
7972;DHT22;4031;49.758;6.120;2022-08-21T05:39:05;9.90;99.90
7972;DHT22;4031;49.758;6.120;2022-08-21T05:41:31;10.00;99.90
7972;DHT22;4031;49.758;6.120;2022-08-21T05:43:57;10.00;99.90
7972;DHT22;4031;49.758;6.120;2022-08-21T05:46:23;10.10;99.90
7972;DHT22;4031;49.758;6.120;2022-08-21T05:48:49;10.10;99.90
7972;DHT22;4031;49.758;6.120;2022-08-21T05:51:16;10.20;99.90
7972;DHT22;4031;49.758;6.120;2022-08-21T05:53:42;10.30;99.90
7972;DHT22;4031;49.758;6.120;2022-08-21T05:56:09;10.30;99.90
7972;DHT22;4031;49.758;6.120;2022-08-21T05:58:35;10.60;99.90
7972;DHT22;4031;49.758;6.120;2022-08-21T06:01:02;10.60;99.90
7972;DHT22;4031;49.758;6.120;2022-08-21T06:03:34;10.70;99.90
7972;DHT22;4031;49.758;6.120;2022-08-21T06:06:02;10.80;99.90
7972;DHT22;4031;49.758;6.120;2022-08-21T06:08:28;11.00;99.90
7972;DHT22;4031;49.758;6.120;2022-08-21T06:10:55;11.10;99.90
7972;DHT22;4031;49.758;6.120;2022-08-21T06:13:24;11.30;99.90
7972;DHT22;4031;49.758;6.120;2022-08-21T06:15:50;11.40;99.90
7972;DHT22;4031;49.758;6.120;2022-08-21T06:18:30;11.70;99.90
7972;DHT22;4031;49.758;6.120;2022-08-21T06:20:56;11.90;99.90
7972;DHT22;4031;49.758;6.120;2022-08-21T06:23:22;12.20;99.90
7972;DHT22;4031;49.758;6.120;2022-08-21T06:25:48;12.70;99.90
7972;DHT22;4031;49.758;6.120;2022-08-21T06:28:13;13.40;99.90
7972;DHT22;4031;49.758;6.120;2022-08-21T06:30:39;14.40;99.90
7972;DHT22;4031;49.758;6.120;2022-08-21T06:33:07;15.40;99.90
7972;DHT22;4031;49.758;6.120;2022-08-21T06:35:34;16.40;99.90
7972;DHT22;4031;49.758;6.120;2022-08-21T06:38:00;17.50;99.90
7972;DHT22;4031;49.758;6.120;2022-08-21T06:40:27;18.60;99.90
7972;DHT22;4031;49.758;6.120;2022-08-21T06:42:54;19.60;99.90
7972;DHT22;4031;49.758;6.120;2022-08-21T06:45:20;20.20;99.90
7972;DHT22;4031;49.758;6.120;2022-08-21T06:47:46;20.80;99.90
7972;DHT22;4031;49.758;6.120;2022-08-21T06:50:12;21.10;99.90
7972;DHT22;4031;49.758;6.120;2022-08-21T06:52:38;21.30;99.90
7972;DHT22;4031;49.758;6.120;2022-08-21T06:55:06;21.40;99.90
7972;DHT22;4031;49.758;6.120;2022-08-21T06:57:34;21.60;99.90
7972;DHT22;4031;49.758;6.120;2022-08-21T07:00:00;22.20;99.90
7972;DHT22;4031;49.758;6.120;2022-08-21T07:02:25;22.80;99.90
7972;DHT22;4031;49.758;6.120;2022-08-21T07:04:51;23.10;99.90
7972;DHT22;4031;49.758;6.120;2022-08-21T07:07:17;23.40;99.90
7972;DHT22;4031;49.758;6.120;2022-08-21T07:09:43;23.60;99.90
7972;DHT22;4031;49.758;6.120;2022-08-21T07:12:09;23.50;99.90
7972;DHT22;4031;49.758;6.120;2022-08-21T07:14:35;23.70;99.90
7972;DHT22;4031;49.758;6.120;2022-08-21T07:17:01;24.10;99.90
7972;DHT22;4031;49.758;6.120;2022-08-21T07:19:28;25.00;99.90
7972;DHT22;4031;49.758;6.120;2022-08-21T07:21:57;25.80;99.90
7972;DHT22;4031;49.758;6.120;2022-08-21T07:24:24;26.20;99.90
7972;DHT22;4031;49.758;6.120;2022-08-21T07:26:50;26.30;99.90
7972;DHT22;4031;49.758;6.120;2022-08-21T07:29:15;26.80;99.90
7972;DHT22;4031;49.758;6.120;2022-08-21T07:31:42;27.50;99.90
7972;DHT22;4031;49.758;6.120;2022-08-21T07:34:08;27.50;99.90
7972;DHT22;4031;49.758;6.120;2022-08-21T07:36:34;27.40;99.90
7972;DHT22;4031;49.758;6.120;2022-08-21T07:39:00;27.40;98.80
7972;DHT22;4031;49.758;6.120;2022-08-21T07:41:27;27.50;98.60
7972;DHT22;4031;49.758;6.120;2022-08-21T07:43:57;28.00;97.00
7972;DHT22;4031;49.758;6.120;2022-08-21T07:46:24;28.40;96.00
7972;DHT22;4031;49.758;6.120;2022-08-21T07:48:51;28.70;94.70
7972;DHT22;4031;49.758;6.120;2022-08-21T07:51:18;28.70;93.00
7972;DHT22;4031;49.758;6.120;2022-08-21T07:53:51;28.60;93.10
7972;DHT22;4031;49.758;6.120;2022-08-21T07:56:19;28.50;91.40
7972;DHT22;4031;49.758;6.120;2022-08-21T07:58:46;28.30;90.00
7972;DHT22;4031;49.758;6.120;2022-08-21T08:01:12;28.00;90.50
7972;DHT22;4031;49.758;6.120;2022-08-21T08:03:39;28.00;88.50
7972;DHT22;4031;49.758;6.120;2022-08-21T08:06:05;28.10;85.30
7972;DHT22;4031;49.758;6.120;2022-08-21T08:08:33;28.00;83.90
7972;DHT22;4031;49.758;6.120;2022-08-21T08:11:00;28.00;83.60
7972;DHT22;4031;49.758;6.120;2022-08-21T08:13:27;28.10;85.00
7972;DHT22;4031;49.758;6.120;2022-08-21T08:15:53;28.00;81.80
7972;DHT22;4031;49.758;6.120;2022-08-21T08:18:19;27.60;82.60
7972;DHT22;4031;49.758;6.120;2022-08-21T08:20:44;27.50;82.60
7972;DHT22;4031;49.758;6.120;2022-08-21T08:23:11;27.90;80.70
7972;DHT22;4031;49.758;6.120;2022-08-21T08:25:40;28.50;80.00
7972;DHT22;4031;49.758;6.120;2022-08-21T08:28:06;28.70;79.20
7972;DHT22;4031;49.758;6.120;2022-08-21T08:30:32;28.60;78.70
7972;DHT22;4031;49.758;6.120;2022-08-21T08:32:58;29.20;77.60
7972;DHT22;4031;49.758;6.120;2022-08-21T08:35:25;30.00;75.70
7972;DHT22;4031;49.758;6.120;2022-08-21T08:37:52;30.20;74.70
7972;DHT22;4031;49.758;6.120;2022-08-21T08:40:40;30.20;74.70
7972;DHT22;4031;49.758;6.120;2022-08-21T08:43:11;30.20;71.70
7972;DHT22;4031;49.758;6.120;2022-08-21T08:45:42;29.90;71.40
7972;DHT22;4031;49.758;6.120;2022-08-21T08:48:14;30.30;69.90
7972;DHT22;4031;49.758;6.120;2022-08-21T08:50:57;30.80;69.70
7972;DHT22;4031;49.758;6.120;2022-08-21T08:53:32;31.70;66.80
7972;DHT22;4031;49.758;6.120;2022-08-21T08:56:00;32.10;65.60
7972;DHT22;4031;49.758;6.120;2022-08-21T08:58:31;32.00;65.00
7972;DHT22;4031;49.758;6.120;2022-08-21T09:00:59;32.20;61.80
7972;DHT22;4031;49.758;6.120;2022-08-21T09:03:26;31.90;60.80
7972;DHT22;4031;49.758;6.120;2022-08-21T09:09:02;32.20;60.80
7972;DHT22;4031;49.758;6.120;2022-08-21T09:12:02;32.50;61.00
7972;DHT22;4031;49.758;6.120;2022-08-21T09:14:58;32.80;59.80
7972;DHT22;4031;49.758;6.120;2022-08-21T09:17:49;33.10;56.20
7972;DHT22;4031;49.758;6.120;2022-08-21T09:23:37;32.90;56.70
7972;DHT22;4031;49.758;6.120;2022-08-21T09:26:17;32.40;56.80
7972;DHT22;4031;49.758;6.120;2022-08-21T09:28:44;32.20;56.90
7972;DHT22;4031;49.758;6.120;2022-08-21T09:31:23;32.30;56.60
7972;DHT22;4031;49.758;6.120;2022-08-21T09:33:49;31.90;56.50
7972;DHT22;4031;49.758;6.120;2022-08-21T09:36:54;32.20;56.00
7972;DHT22;4031;49.758;6.120;2022-08-21T09:39:26;32.50;54.90
7972;DHT22;4031;49.758;6.120;2022-08-21T09:42:04;32.80;54.70
7972;DHT22;4031;49.758;6.120;2022-08-21T09:44:35;33.30;53.70
7972;DHT22;4031;49.758;6.120;2022-08-21T09:47:05;33.80;53.20
7972;DHT22;4031;49.758;6.120;2022-08-21T09:49:35;34.10;51.60
7972;DHT22;4031;49.758;6.120;2022-08-21T09:52:15;33.70;53.10
7972;DHT22;4031;49.758;6.120;2022-08-21T09:54:45;33.60;52.10
7972;DHT22;4031;49.758;6.120;2022-08-21T09:57:17;34.00;52.10
7972;DHT22;4031;49.758;6.120;2022-08-21T10:00:23;34.30;51.00
7972;DHT22;4031;49.758;6.120;2022-08-21T10:02:50;33.80;49.90
7972;DHT22;4031;49.758;6.120;2022-08-21T10:07:45;33.00;50.20
7972;DHT22;4031;49.758;6.120;2022-08-21T10:10:26;32.80;49.60
7972;DHT22;4031;49.758;6.120;2022-08-21T10:12:59;32.90;49.40
7972;DHT22;4031;49.758;6.120;2022-08-21T10:21:05;33.60;48.80
7972;DHT22;4031;49.758;6.120;2022-08-21T10:23:47;33.50;49.90
7972;DHT22;4031;49.758;6.120;2022-08-21T10:26:25;33.30;48.70
7972;DHT22;4031;49.758;6.120;2022-08-21T10:29:45;33.20;48.70
7972;DHT22;4031;49.758;6.120;2022-08-21T10:32:27;33.40;49.20
7972;DHT22;4031;49.758;6.120;2022-08-21T10:43:26;33.20;47.50
7972;DHT22;4031;49.758;6.120;2022-08-21T10:49:21;32.70;47.70
7972;DHT22;4031;49.758;6.120;2022-08-21T11:00:23;33.80;47.30
7972;DHT22;4031;49.758;6.120;2022-08-21T11:02:57;33.80;47.50
7972;DHT22;4031;49.758;6.120;2022-08-21T11:05:48;33.90;47.00
7972;DHT22;4031;49.758;6.120;2022-08-21T11:10:59;34.30;47.00
7972;DHT22;4031;49.758;6.120;2022-08-21T11:16:17;33.30;47.50
7972;DHT22;4031;49.758;6.120;2022-08-21T11:19:07;33.00;47.20
7972;DHT22;4031;49.758;6.120;2022-08-21T11:21:37;32.90;47.80
7972;DHT22;4031;49.758;6.120;2022-08-21T11:24:22;33.20;47.30
7972;DHT22;4031;49.758;6.120;2022-08-21T11:27:09;33.50;47.10
7972;DHT22;4031;49.758;6.120;2022-08-21T11:29:41;33.80;46.90
7972;DHT22;4031;49.758;6.120;2022-08-21T11:39:22;34.30;46.50
7972;DHT22;4031;49.758;6.120;2022-08-21T11:41:46;34.40;46.50
7972;DHT22;4031;49.758;6.120;2022-08-21T11:44:24;34.00;46.90
7972;DHT22;4031;49.758;6.120;2022-08-21T11:47:13;34.00;46.80
7972;DHT22;4031;49.758;6.120;2022-08-21T11:50:18;34.30;46.00
7972;DHT22;4031;49.758;6.120;2022-08-21T11:53:02;34.00;45.50
7972;DHT22;4031;49.758;6.120;2022-08-21T11:55:40;33.90;46.70
7972;DHT22;4031;49.758;6.120;2022-08-21T12:01:03;33.50;45.90
7972;DHT22;4031;49.758;6.120;2022-08-21T12:03:52;33.80;45.60
7972;DHT22;4031;49.758;6.120;2022-08-21T12:06:36;32.90;46.20
7972;DHT22;4031;49.758;6.120;2022-08-21T12:09:09;33.10;45.40
7972;DHT22;4031;49.758;6.120;2022-08-21T12:14:51;32.70;45.80
7972;DHT22;4031;49.758;6.120;2022-08-21T12:17:35;31.50;46.40
7972;DHT22;4031;49.758;6.120;2022-08-21T12:25:43;32.10;48.00
7972;DHT22;4031;49.758;6.120;2022-08-21T12:28:15;32.10;47.00
7972;DHT22;4031;49.758;6.120;2022-08-21T12:30:46;31.50;47.70
7972;DHT22;4031;49.758;6.120;2022-08-21T12:33:35;31.50;48.20
7972;DHT22;4031;49.758;6.120;2022-08-21T12:36:15;31.60;47.00
7972;DHT22;4031;49.758;6.120;2022-08-21T12:39:04;31.90;47.30
7972;DHT22;4031;49.758;6.120;2022-08-21T12:42:15;32.40;47.20
7972;DHT22;4031;49.758;6.120;2022-08-21T12:44:46;33.10;47.20
7972;DHT22;4031;49.758;6.120;2022-08-21T12:50:09;33.10;45.30
7972;DHT22;4031;49.758;6.120;2022-08-21T12:53:05;33.00;46.10
7972;DHT22;4031;49.758;6.120;2022-08-21T12:55:35;33.30;45.80
7972;DHT22;4031;49.758;6.120;2022-08-21T12:58:06;33.40;45.60
7972;DHT22;4031;49.758;6.120;2022-08-21T13:00:32;33.80;45.50
7972;DHT22;4031;49.758;6.120;2022-08-21T13:02:58;34.10;45.00
7972;DHT22;4031;49.758;6.120;2022-08-21T13:07:57;34.40;45.20
7972;DHT22;4031;49.758;6.120;2022-08-21T13:10:26;34.20;44.40
7972;DHT22;4031;49.758;6.120;2022-08-21T13:13:03;34.00;44.10
7972;DHT22;4031;49.758;6.120;2022-08-21T13:15:33;33.70;44.50
7972;DHT22;4031;49.758;6.120;2022-08-21T13:18:03;34.00;44.80
7972;DHT22;4031;49.758;6.120;2022-08-21T13:20:38;34.30;44.10
7972;DHT22;4031;49.758;6.120;2022-08-21T13:23:16;34.80;43.40
7972;DHT22;4031;49.758;6.120;2022-08-21T13:25:45;35.20;43.40
7972;DHT22;4031;49.758;6.120;2022-08-21T13:28:12;35.40;43.10
7972;DHT22;4031;49.758;6.120;2022-08-21T13:30:46;35.10;42.70
7972;DHT22;4031;49.758;6.120;2022-08-21T13:33:16;35.30;42.00
7972;DHT22;4031;49.758;6.120;2022-08-21T13:38:31;35.30;41.60
7972;DHT22;4031;49.758;6.120;2022-08-21T13:41:05;35.60;43.10
7972;DHT22;4031;49.758;6.120;2022-08-21T13:43:36;36.10;41.70
7972;DHT22;4031;49.758;6.120;2022-08-21T13:46:07;36.40;41.70
7972;DHT22;4031;49.758;6.120;2022-08-21T13:48:35;34.90;40.80
7972;DHT22;4031;49.758;6.120;2022-08-21T13:51:02;33.30;42.40
7972;DHT22;4031;49.758;6.120;2022-08-21T13:53:32;32.00;43.20
7972;DHT22;4031;49.758;6.120;2022-08-21T13:55:59;31.30;44.90
7972;DHT22;4031;49.758;6.120;2022-08-21T13:58:27;31.50;44.70
7972;DHT22;4031;49.758;6.120;2022-08-21T14:00:56;32.00;44.00
7972;DHT22;4031;49.758;6.120;2022-08-21T14:06:19;33.40;43.60
7972;DHT22;4031;49.758;6.120;2022-08-21T14:08:54;33.90;42.40
7972;DHT22;4031;49.758;6.120;2022-08-21T14:11:26;33.80;42.40
7972;DHT22;4031;49.758;6.120;2022-08-21T14:14:04;33.40;42.90
7972;DHT22;4031;49.758;6.120;2022-08-21T14:16:55;32.80;42.60
7972;DHT22;4031;49.758;6.120;2022-08-21T14:19:44;32.30;41.90
7972;DHT22;4031;49.758;6.120;2022-08-21T14:22:31;32.00;43.10
7972;DHT22;4031;49.758;6.120;2022-08-21T14:25:14;31.60;42.60
7972;DHT22;4031;49.758;6.120;2022-08-21T14:28:33;31.30;43.60
7972;DHT22;4031;49.758;6.120;2022-08-21T14:30:51;31.20;44.00
7972;DHT22;4031;49.758;6.120;2022-08-21T14:33:32;30.70;43.50
7972;DHT22;4031;49.758;6.120;2022-08-21T14:35:58;30.30;45.60
7972;DHT22;4031;49.758;6.120;2022-08-21T14:38:27;29.70;45.50
7972;DHT22;4031;49.758;6.120;2022-08-21T14:40:59;29.90;45.60
7972;DHT22;4031;49.758;6.120;2022-08-21T14:43:30;30.10;45.50
7972;DHT22;4031;49.758;6.120;2022-08-21T14:45:56;30.30;45.10
7972;DHT22;4031;49.758;6.120;2022-08-21T14:48:22;30.00;44.80
7972;DHT22;4031;49.758;6.120;2022-08-21T14:50:48;29.90;45.10
7972;DHT22;4031;49.758;6.120;2022-08-21T14:53:14;29.70;45.20
7972;DHT22;4031;49.758;6.120;2022-08-21T14:55:41;29.60;45.90
7972;DHT22;4031;49.758;6.120;2022-08-21T14:58:26;29.30;46.70
7972;DHT22;4031;49.758;6.120;2022-08-21T15:00:54;29.00;46.20
7972;DHT22;4031;49.758;6.120;2022-08-21T15:03:19;28.90;46.60
7972;DHT22;4031;49.758;6.120;2022-08-21T15:05:47;28.80;46.70
7972;DHT22;4031;49.758;6.120;2022-08-21T15:08:14;28.90;47.40
7972;DHT22;4031;49.758;6.120;2022-08-21T15:10:39;28.80;47.00
7972;DHT22;4031;49.758;6.120;2022-08-21T15:13:06;28.80;46.50
7972;DHT22;4031;49.758;6.120;2022-08-21T15:15:41;28.60;47.50
7972;DHT22;4031;49.758;6.120;2022-08-21T15:18:09;28.60;48.20
7972;DHT22;4031;49.758;6.120;2022-08-21T15:20:35;28.40;47.50
7972;DHT22;4031;49.758;6.120;2022-08-21T15:23:02;28.20;47.90
7972;DHT22;4031;49.758;6.120;2022-08-21T15:25:29;27.90;48.20
7972;DHT22;4031;49.758;6.120;2022-08-21T15:27:55;27.80;47.60
7972;DHT22;4031;49.758;6.120;2022-08-21T15:30:21;27.60;49.40
7972;DHT22;4031;49.758;6.120;2022-08-21T15:32:47;27.60;48.90
7972;DHT22;4031;49.758;6.120;2022-08-21T15:35:14;27.60;49.80
7972;DHT22;4031;49.758;6.120;2022-08-21T15:37:39;27.50;50.70
7972;DHT22;4031;49.758;6.120;2022-08-21T15:40:06;27.40;49.90
7972;DHT22;4031;49.758;6.120;2022-08-21T15:42:33;27.30;50.40
7972;DHT22;4031;49.758;6.120;2022-08-21T15:45:00;27.30;50.90
7972;DHT22;4031;49.758;6.120;2022-08-21T15:47:30;27.40;50.50
7972;DHT22;4031;49.758;6.120;2022-08-21T15:49:58;27.30;50.50
7972;DHT22;4031;49.758;6.120;2022-08-21T15:52:24;27.20;50.90
7972;DHT22;4031;49.758;6.120;2022-08-21T15:54:50;27.20;50.60
7972;DHT22;4031;49.758;6.120;2022-08-21T15:57:19;27.20;51.00
7972;DHT22;4031;49.758;6.120;2022-08-21T15:59:56;27.20;50.40
7972;DHT22;4031;49.758;6.120;2022-08-21T16:02:26;27.10;51.10
7972;DHT22;4031;49.758;6.120;2022-08-21T16:04:55;27.30;51.30
7972;DHT22;4031;49.758;6.120;2022-08-21T16:07:21;27.60;50.30
7972;DHT22;4031;49.758;6.120;2022-08-21T16:09:47;28.00;50.30
7972;DHT22;4031;49.758;6.120;2022-08-21T16:12:19;28.30;50.40
7972;DHT22;4031;49.758;6.120;2022-08-21T16:14:48;28.60;49.10
7972;DHT22;4031;49.758;6.120;2022-08-21T16:17:15;28.70;49.70
7972;DHT22;4031;49.758;6.120;2022-08-21T16:19:41;28.70;48.70
7972;DHT22;4031;49.758;6.120;2022-08-21T16:22:07;28.50;49.10
7972;DHT22;4031;49.758;6.120;2022-08-21T16:24:33;28.40;49.70
7972;DHT22;4031;49.758;6.120;2022-08-21T16:27:01;28.20;50.10
7972;DHT22;4031;49.758;6.120;2022-08-21T16:29:32;28.00;50.10
7972;DHT22;4031;49.758;6.120;2022-08-21T16:31:59;27.70;50.70
7972;DHT22;4031;49.758;6.120;2022-08-21T16:34:25;27.40;51.60
7972;DHT22;4031;49.758;6.120;2022-08-21T16:36:53;27.10;51.70
7972;DHT22;4031;49.758;6.120;2022-08-21T16:39:19;26.80;52.80
7972;DHT22;4031;49.758;6.120;2022-08-21T16:41:45;26.50;53.00
7972;DHT22;4031;49.758;6.120;2022-08-21T16:44:13;26.30;54.30
7972;DHT22;4031;49.758;6.120;2022-08-21T16:46:40;26.00;54.20
7972;DHT22;4031;49.758;6.120;2022-08-21T16:49:06;25.80;54.70
7972;DHT22;4031;49.758;6.120;2022-08-21T16:51:32;25.70;54.90
7972;DHT22;4031;49.758;6.120;2022-08-21T16:53:59;25.70;55.90
7972;DHT22;4031;49.758;6.120;2022-08-21T16:56:25;25.70;56.00
7972;DHT22;4031;49.758;6.120;2022-08-21T16:58:53;25.60;56.20
7972;DHT22;4031;49.758;6.120;2022-08-21T17:01:24;25.50;57.00
7972;DHT22;4031;49.758;6.120;2022-08-21T17:03:52;25.50;56.50
7972;DHT22;4031;49.758;6.120;2022-08-21T17:06:20;25.60;57.80
7972;DHT22;4031;49.758;6.120;2022-08-21T17:08:46;25.50;57.10
7972;DHT22;4031;49.758;6.120;2022-08-21T17:13:59;25.40;58.30
7972;DHT22;4031;49.758;6.120;2022-08-21T17:16:27;25.30;58.80
7972;DHT22;4031;49.758;6.120;2022-08-21T17:18:53;25.20;58.60
7972;DHT22;4031;49.758;6.120;2022-08-21T17:21:19;25.10;59.60
7972;DHT22;4031;49.758;6.120;2022-08-21T17:23:46;25.00;59.30
7972;DHT22;4031;49.758;6.120;2022-08-21T17:26:13;24.80;59.50
7972;DHT22;4031;49.758;6.120;2022-08-21T17:28:41;24.70;59.80
7972;DHT22;4031;49.758;6.120;2022-08-21T17:31:08;24.50;60.20
7972;DHT22;4031;49.758;6.120;2022-08-21T17:33:39;24.40;60.20
7972;DHT22;4031;49.758;6.120;2022-08-21T17:36:20;24.20;61.40